sensor_id;sensor_type;location;lat;lon;timestamp;P1;durP1;ratioP1;P2;durP2;ratioP2
15673;SDS011;7937;48.090;16.212;2022-07-17T00:01:14;1.73;;;1.30;;
15673;SDS011;7937;48.090;16.212;2022-07-17T00:04:16;2.93;;;1.30;;
15673;SDS011;7937;48.090;16.212;2022-07-17T00:07:20;1.47;;;1.10;;
15673;SDS011;7937;48.090;16.212;2022-07-17T00:10:22;1.50;;;1.30;;
15673;SDS011;7937;48.090;16.212;2022-07-17T00:13:24;1.27;;;1.17;;
15673;SDS011;7937;48.090;16.212;2022-07-17T00:16:26;3.20;;;1.20;;
15673;SDS011;7937;48.090;16.212;2022-07-17T00:19:29;3.73;;;1.50;;
15673;SDS011;7937;48.090;16.212;2022-07-17T00:22:31;2.83;;;1.60;;
15673;SDS011;7937;48.090;16.212;2022-07-17T00:25:33;2.10;;;1.60;;
15673;SDS011;7937;48.090;16.212;2022-07-17T00:28:35;2.50;;;1.27;;
15673;SDS011;7937;48.090;16.212;2022-07-17T00:31:37;1.30;;;1.20;;
15673;SDS011;7937;48.090;16.212;2022-07-17T00:34:39;4.57;;;1.40;;
15673;SDS011;7937;48.090;16.212;2022-07-17T00:37:42;2.00;;;1.53;;
15673;SDS011;7937;48.090;16.212;2022-07-17T00:40:46;2.53;;;1.60;;
15673;SDS011;7937;48.090;16.212;2022-07-17T00:43:48;2.60;;;1.70;;
15673;SDS011;7937;48.090;16.212;2022-07-17T00:46:50;1.43;;;1.33;;
15673;SDS011;7937;48.090;16.212;2022-07-17T00:49:53;1.53;;;1.43;;
15673;SDS011;7937;48.090;16.212;2022-07-17T00:52:55;1.40;;;1.30;;
15673;SDS011;7937;48.090;16.212;2022-07-17T00:55:57;2.27;;;1.27;;
15673;SDS011;7937;48.090;16.212;2022-07-17T00:59:02;1.80;;;1.47;;
15673;SDS011;7937;48.090;16.212;2022-07-17T01:02:11;3.30;;;1.30;;
15673;SDS011;7937;48.090;16.212;2022-07-17T01:05:15;2.37;;;1.50;;
15673;SDS011;7937;48.090;16.212;2022-07-17T01:08:21;2.43;;;1.13;;
15673;SDS011;7937;48.090;16.212;2022-07-17T01:11:23;1.90;;;1.37;;
15673;SDS011;7937;48.090;16.212;2022-07-17T01:14:26;1.30;;;1.20;;
15673;SDS011;7937;48.090;16.212;2022-07-17T01:17:30;2.50;;;1.37;;
15673;SDS011;7937;48.090;16.212;2022-07-17T01:20:32;1.87;;;1.27;;
15673;SDS011;7937;48.090;16.212;2022-07-17T01:23:35;1.27;;;1.17;;
15673;SDS011;7937;48.090;16.212;2022-07-17T01:26:37;4.53;;;1.30;;
15673;SDS011;7937;48.090;16.212;2022-07-17T01:29:42;1.30;;;1.20;;
15673;SDS011;7937;48.090;16.212;2022-07-17T01:32:44;1.37;;;1.23;;
15673;SDS011;7937;48.090;16.212;2022-07-17T01:35:46;1.03;;;1.03;;
15673;SDS011;7937;48.090;16.212;2022-07-17T01:38:49;1.50;;;1.40;;
15673;SDS011;7937;48.090;16.212;2022-07-17T01:41:51;1.50;;;1.00;;
15673;SDS011;7937;48.090;16.212;2022-07-17T01:44:53;1.43;;;1.33;;
15673;SDS011;7937;48.090;16.212;2022-07-17T01:47:56;2.37;;;1.10;;
15673;SDS011;7937;48.090;16.212;2022-07-17T01:50:58;2.77;;;1.70;;
15673;SDS011;7937;48.090;16.212;2022-07-17T01:54:01;1.30;;;1.20;;
15673;SDS011;7937;48.090;16.212;2022-07-17T01:57:03;1.63;;;1.10;;
15673;SDS011;7937;48.090;16.212;2022-07-17T02:00:05;1.10;;;1.00;;
15673;SDS011;7937;48.090;16.212;2022-07-17T02:03:10;1.50;;;1.33;;
15673;SDS011;7937;48.090;16.212;2022-07-17T02:06:12;2.00;;;1.30;;
15673;SDS011;7937;48.090;16.212;2022-07-17T02:09:14;1.10;;;1.00;;
15673;SDS011;7937;48.090;16.212;2022-07-17T02:12:16;1.63;;;1.30;;
15673;SDS011;7937;48.090;16.212;2022-07-17T02:15:18;1.00;;;0.80;;
15673;SDS011;7937;48.090;16.212;2022-07-17T02:18:20;1.30;;;1.20;;
15673;SDS011;7937;48.090;16.212;2022-07-17T02:21:22;1.90;;;1.00;;
15673;SDS011;7937;48.090;16.212;2022-07-17T02:24:24;1.60;;;1.20;;
15673;SDS011;7937;48.090;16.212;2022-07-17T02:27:26;1.40;;;1.30;;
15673;SDS011;7937;48.090;16.212;2022-07-17T02:30:29;0.90;;;0.90;;
15673;SDS011;7937;48.090;16.212;2022-07-17T02:33:31;1.33;;;0.90;;
15673;SDS011;7937;48.090;16.212;2022-07-17T02:36:33;1.73;;;1.10;;
15673;SDS011;7937;48.090;16.212;2022-07-17T02:39:35;1.30;;;1.00;;
15673;SDS011;7937;48.090;16.212;2022-07-17T02:42:37;1.60;;;1.03;;
15673;SDS011;7937;48.090;16.212;2022-07-17T02:45:39;1.50;;;1.40;;
15673;SDS011;7937;48.090;16.212;2022-07-17T02:48:41;1.63;;;1.00;;
15673;SDS011;7937;48.090;16.212;2022-07-17T02:51:44;1.47;;;1.00;;
15673;SDS011;7937;48.090;16.212;2022-07-17T02:54:46;1.43;;;1.00;;
15673;SDS011;7937;48.090;16.212;2022-07-17T02:57:48;1.33;;;1.10;;
15673;SDS011;7937;48.090;16.212;2022-07-17T03:00:50;1.40;;;1.10;;
15673;SDS011;7937;48.090;16.212;2022-07-17T03:03:52;1.57;;;0.83;;
15673;SDS011;7937;48.090;16.212;2022-07-17T03:06:54;3.07;;;1.07;;
15673;SDS011;7937;48.090;16.212;2022-07-17T03:09:56;3.23;;;1.20;;
15673;SDS011;7937;48.090;16.212;2022-07-17T03:12:58;0.97;;;0.93;;
15673;SDS011;7937;48.090;16.212;2022-07-17T03:16:00;1.93;;;0.90;;
15673;SDS011;7937;48.090;16.212;2022-07-17T03:19:02;1.70;;;1.17;;
15673;SDS011;7937;48.090;16.212;2022-07-17T03:22:04;0.70;;;0.70;;
15673;SDS011;7937;48.090;16.212;2022-07-17T03:25:07;2.07;;;1.10;;
15673;SDS011;7937;48.090;16.212;2022-07-17T03:28:09;1.23;;;1.00;;
15673;SDS011;7937;48.090;16.212;2022-07-17T03:31:12;1.80;;;1.20;;
15673;SDS011;7937;48.090;16.212;2022-07-17T03:34:14;2.30;;;1.00;;
15673;SDS011;7937;48.090;16.212;2022-07-17T03:37:16;2.23;;;1.07;;
15673;SDS011;7937;48.090;16.212;2022-07-17T03:40:18;1.00;;;1.00;;
15673;SDS011;7937;48.090;16.212;2022-07-17T03:43:20;1.47;;;0.90;;
15673;SDS011;7937;48.090;16.212;2022-07-17T03:46:23;1.57;;;0.93;;
15673;SDS011;7937;48.090;16.212;2022-07-17T03:49:25;2.10;;;1.27;;
15673;SDS011;7937;48.090;16.212;2022-07-17T03:52:27;2.70;;;0.90;;
15673;SDS011;7937;48.090;16.212;2022-07-17T03:55:29;1.17;;;0.90;;
15673;SDS011;7937;48.090;16.212;2022-07-17T03:58:31;1.10;;;1.00;;
15673;SDS011;7937;48.090;16.212;2022-07-17T04:01:34;0.93;;;0.90;;
15673;SDS011;7937;48.090;16.212;2022-07-17T04:04:36;3.57;;;1.17;;
15673;SDS011;7937;48.090;16.212;2022-07-17T04:07:38;4.10;;;0.97;;
15673;SDS011;7937;48.090;16.212;2022-07-17T04:10:41;1.30;;;1.10;;
15673;SDS011;7937;48.090;16.212;2022-07-17T04:13:44;1.10;;;1.00;;
15673;SDS011;7937;48.090;16.212;2022-07-17T04:16:46;2.30;;;1.00;;
15673;SDS011;7937;48.090;16.212;2022-07-17T04:19:48;2.73;;;1.20;;
15673;SDS011;7937;48.090;16.212;2022-07-17T04:22:50;2.53;;;1.27;;
15673;SDS011;7937;48.090;16.212;2022-07-17T04:25:53;1.93;;;1.13;;
15673;SDS011;7937;48.090;16.212;2022-07-17T04:28:55;1.40;;;1.00;;
15673;SDS011;7937;48.090;16.212;2022-07-17T04:31:57;1.67;;;1.20;;
15673;SDS011;7937;48.090;16.212;2022-07-17T04:34:59;1.07;;;1.00;;
15673;SDS011;7937;48.090;16.212;2022-07-17T04:38:01;1.40;;;1.30;;
15673;SDS011;7937;48.090;16.212;2022-07-17T04:41:07;1.27;;;0.90;;
15673;SDS011;7937;48.090;16.212;2022-07-17T04:44:10;0.90;;;0.90;;
15673;SDS011;7937;48.090;16.212;2022-07-17T04:47:12;1.80;;;1.20;;
15673;SDS011;7937;48.090;16.212;2022-07-17T04:50:14;1.53;;;1.10;;
15673;SDS011;7937;48.090;16.212;2022-07-17T04:53:16;1.00;;;0.90;;
15673;SDS011;7937;48.090;16.212;2022-07-17T04:56:24;1.10;;;0.90;;
15673;SDS011;7937;48.090;16.212;2022-07-17T04:59:26;1.53;;;1.20;;
15673;SDS011;7937;48.090;16.212;2022-07-17T05:02:28;1.27;;;1.00;;
15673;SDS011;7937;48.090;16.212;2022-07-17T05:05:30;2.33;;;1.00;;
15673;SDS011;7937;48.090;16.212;2022-07-17T05:08:33;1.40;;;0.90;;
15673;SDS011;7937;48.090;16.212;2022-07-17T05:11:36;1.47;;;1.10;;
15673;SDS011;7937;48.090;16.212;2022-07-17T05:14:38;1.33;;;0.90;;
15673;SDS011;7937;48.090;16.212;2022-07-17T05:17:40;2.30;;;1.20;;
15673;SDS011;7937;48.090;16.212;2022-07-17T05:20:42;2.10;;;0.80;;
15673;SDS011;7937;48.090;16.212;2022-07-17T05:23:44;1.63;;;1.00;;
15673;SDS011;7937;48.090;16.212;2022-07-17T05:26:46;1.87;;;1.00;;
15673;SDS011;7937;48.090;16.212;2022-07-17T05:29:48;1.07;;;0.90;;
15673;SDS011;7937;48.090;16.212;2022-07-17T05:32:50;1.10;;;1.00;;
15673;SDS011;7937;48.090;16.212;2022-07-17T05:35:52;2.83;;;1.33;;
15673;SDS011;7937;48.090;16.212;2022-07-17T05:38:54;1.10;;;1.00;;
15673;SDS011;7937;48.090;16.212;2022-07-17T05:41:56;1.20;;;1.10;;
15673;SDS011;7937;48.090;16.212;2022-07-17T05:44:58;1.70;;;1.10;;
15673;SDS011;7937;48.090;16.212;2022-07-17T05:48:00;2.00;;;1.07;;
15673;SDS011;7937;48.090;16.212;2022-07-17T05:51:02;2.83;;;1.27;;
15673;SDS011;7937;48.090;16.212;2022-07-17T05:54:12;1.97;;;1.10;;
15673;SDS011;7937;48.090;16.212;2022-07-17T05:57:14;0.90;;;0.87;;
15673;SDS011;7937;48.090;16.212;2022-07-17T06:00:16;1.50;;;0.87;;
15673;SDS011;7937;48.090;16.212;2022-07-17T06:03:19;1.17;;;1.00;;
15673;SDS011;7937;48.090;16.212;2022-07-17T06:06:21;1.90;;;1.20;;
15673;SDS011;7937;48.090;16.212;2022-07-17T06:09:23;1.00;;;0.97;;
15673;SDS011;7937;48.090;16.212;2022-07-17T06:12:25;0.83;;;0.83;;
15673;SDS011;7937;48.090;16.212;2022-07-17T06:15:28;1.50;;;0.83;;
15673;SDS011;7937;48.090;16.212;2022-07-17T06:18:30;2.03;;;0.97;;
15673;SDS011;7937;48.090;16.212;2022-07-17T06:21:32;1.20;;;0.83;;
15673;SDS011;7937;48.090;16.212;2022-07-17T06:24:34;1.90;;;1.10;;
15673;SDS011;7937;48.090;16.212;2022-07-17T06:27:40;1.40;;;1.10;;
15673;SDS011;7937;48.090;16.212;2022-07-17T06:30:43;3.97;;;1.20;;
15673;SDS011;7937;48.090;16.212;2022-07-17T06:33:45;1.20;;;1.10;;
15673;SDS011;7937;48.090;16.212;2022-07-17T06:36:47;1.83;;;0.80;;
15673;SDS011;7937;48.090;16.212;2022-07-17T06:39:49;2.30;;;1.10;;
15673;SDS011;7937;48.090;16.212;2022-07-17T06:42:51;1.40;;;0.90;;
15673;SDS011;7937;48.090;16.212;2022-07-17T06:45:54;1.07;;;0.87;;
15673;SDS011;7937;48.090;16.212;2022-07-17T06:48:56;1.27;;;0.97;;
15673;SDS011;7937;48.090;16.212;2022-07-17T06:51:59;2.90;;;0.97;;
15673;SDS011;7937;48.090;16.212;2022-07-17T06:55:00;2.50;;;1.00;;
15673;SDS011;7937;48.090;16.212;2022-07-17T06:58:02;3.47;;;1.20;;
15673;SDS011;7937;48.090;16.212;2022-07-17T07:01:04;1.40;;;0.80;;
15673;SDS011;7937;48.090;16.212;2022-07-17T07:04:07;2.57;;;1.10;;
15673;SDS011;7937;48.090;16.212;2022-07-17T07:07:09;2.97;;;0.80;;
15673;SDS011;7937;48.090;16.212;2022-07-17T07:10:12;5.60;;;1.20;;
15673;SDS011;7937;48.090;16.212;2022-07-17T07:13:14;2.90;;;1.03;;
15673;SDS011;7937;48.090;16.212;2022-07-17T07:16:16;0.93;;;0.57;;
15673;SDS011;7937;48.090;16.212;2022-07-17T07:19:18;1.77;;;0.80;;
15673;SDS011;7937;48.090;16.212;2022-07-17T07:22:20;1.30;;;0.80;;
15673;SDS011;7937;48.090;16.212;2022-07-17T07:25:22;1.27;;;1.00;;
15673;SDS011;7937;48.090;16.212;2022-07-17T07:28:24;1.47;;;0.90;;
15673;SDS011;7937;48.090;16.212;2022-07-17T07:31:26;3.43;;;0.90;;
15673;SDS011;7937;48.090;16.212;2022-07-17T07:34:29;1.97;;;1.03;;
15673;SDS011;7937;48.090;16.212;2022-07-17T07:37:31;2.10;;;0.80;;
15673;SDS011;7937;48.090;16.212;2022-07-17T07:40:34;1.57;;;0.70;;
15673;SDS011;7937;48.090;16.212;2022-07-17T07:43:36;1.97;;;0.90;;
15673;SDS011;7937;48.090;16.212;2022-07-17T07:46:38;3.27;;;0.70;;
15673;SDS011;7937;48.090;16.212;2022-07-17T07:49:41;1.20;;;0.80;;
15673;SDS011;7937;48.090;16.212;2022-07-17T07:52:43;3.53;;;0.90;;
15673;SDS011;7937;48.090;16.212;2022-07-17T07:55:45;1.80;;;0.80;;
15673;SDS011;7937;48.090;16.212;2022-07-17T07:58:47;3.63;;;1.30;;
15673;SDS011;7937;48.090;16.212;2022-07-17T08:01:49;1.20;;;0.80;;
15673;SDS011;7937;48.090;16.212;2022-07-17T08:04:51;2.80;;;0.90;;
15673;SDS011;7937;48.090;16.212;2022-07-17T08:07:53;2.67;;;1.10;;
15673;SDS011;7937;48.090;16.212;2022-07-17T08:10:55;1.67;;;0.90;;
15673;SDS011;7937;48.090;16.212;2022-07-17T08:13:57;3.63;;;1.00;;
15673;SDS011;7937;48.090;16.212;2022-07-17T08:17:08;1.35;;;0.80;;
15673;SDS011;7937;48.090;16.212;2022-07-17T08:20:11;2.78;;;0.80;;
15673;SDS011;7937;48.090;16.212;2022-07-17T08:23:15;2.45;;;0.82;;
15673;SDS011;7937;48.090;16.212;2022-07-17T08:26:17;4.05;;;1.00;;
15673;SDS011;7937;48.090;16.212;2022-07-17T08:29:19;1.33;;;0.90;;
15673;SDS011;7937;48.090;16.212;2022-07-17T08:32:41;5.53;;;4.40;;
15673;SDS011;7937;48.090;16.212;2022-07-17T08:35:44;4.22;;;2.95;;
15673;SDS011;7937;48.090;16.212;2022-07-17T08:38:46;3.05;;;2.38;;
15673;SDS011;7937;48.090;16.212;2022-07-17T08:41:48;1.67;;;1.50;;
15673;SDS011;7937;48.090;16.212;2022-07-17T08:44:51;1.27;;;0.80;;
15673;SDS011;7937;48.090;16.212;2022-07-17T08:47:54;1.52;;;0.80;;
15673;SDS011;7937;48.090;16.212;2022-07-17T08:50:58;1.02;;;0.73;;
15673;SDS011;7937;48.090;16.212;2022-07-17T08:54:01;3.45;;;1.05;;
15673;SDS011;7937;48.090;16.212;2022-07-17T08:57:03;1.52;;;0.93;;
15673;SDS011;7937;48.090;16.212;2022-07-17T09:00:05;1.50;;;0.70;;
15673;SDS011;7937;48.090;16.212;2022-07-17T09:03:08;1.27;;;0.75;;
15673;SDS011;7937;48.090;16.212;2022-07-17T09:06:17;1.35;;;0.70;;
15673;SDS011;7937;48.090;16.212;2022-07-17T09:09:22;1.13;;;0.70;;
15673;SDS011;7937;48.090;16.212;2022-07-17T09:12:27;1.02;;;0.73;;
15673;SDS011;7937;48.090;16.212;2022-07-17T09:15:32;1.33;;;0.90;;
15673;SDS011;7937;48.090;16.212;2022-07-17T09:18:44;3.05;;;1.00;;
15673;SDS011;7937;48.090;16.212;2022-07-17T09:21:47;3.50;;;0.90;;
15673;SDS011;7937;48.090;16.212;2022-07-17T09:24:55;1.30;;;0.90;;
15673;SDS011;7937;48.090;16.212;2022-07-17T09:28:00;1.10;;;0.90;;
15673;SDS011;7937;48.090;16.212;2022-07-17T09:31:04;0.85;;;0.82;;
15673;SDS011;7937;48.090;16.212;2022-07-17T09:34:15;1.55;;;0.70;;
15673;SDS011;7937;48.090;16.212;2022-07-17T09:37:18;1.92;;;0.85;;
15673;SDS011;7937;48.090;16.212;2022-07-17T09:40:24;2.15;;;1.00;;
15673;SDS011;7937;48.090;16.212;2022-07-17T09:43:46;1.00;;;0.80;;
15673;SDS011;7937;48.090;16.212;2022-07-17T09:46:50;2.17;;;1.10;;
15673;SDS011;7937;48.090;16.212;2022-07-17T09:49:52;2.22;;;1.15;;
15673;SDS011;7937;48.090;16.212;2022-07-17T09:52:56;2.10;;;0.90;;
15673;SDS011;7937;48.090;16.212;2022-07-17T09:55:59;1.55;;;0.75;;
15673;SDS011;7937;48.090;16.212;2022-07-17T09:59:04;1.75;;;1.17;;
15673;SDS011;7937;48.090;16.212;2022-07-17T10:02:11;1.00;;;1.00;;
15673;SDS011;7937;48.090;16.212;2022-07-17T10:05:14;2.65;;;0.98;;
15673;SDS011;7937;48.090;16.212;2022-07-17T10:08:17;1.35;;;1.00;;
15673;SDS011;7937;48.090;16.212;2022-07-17T10:11:22;3.75;;;1.17;;
15673;SDS011;7937;48.090;16.212;2022-07-17T10:14:25;3.40;;;1.00;;
15673;SDS011;7937;48.090;16.212;2022-07-17T10:17:27;3.85;;;0.93;;
15673;SDS011;7937;48.090;16.212;2022-07-17T10:20:29;1.50;;;0.80;;
15673;SDS011;7937;48.090;16.212;2022-07-17T10:23:32;1.10;;;0.80;;
15673;SDS011;7937;48.090;16.212;2022-07-17T10:29:37;2.97;;;1.13;;
15673;SDS011;7937;48.090;16.212;2022-07-17T10:32:51;1.35;;;0.93;;
15673;SDS011;7937;48.090;16.212;2022-07-17T10:35:54;1.90;;;0.90;;
15673;SDS011;7937;48.090;16.212;2022-07-17T10:39:12;1.27;;;0.75;;
15673;SDS011;7937;48.090;16.212;2022-07-17T10:45:44;1.67;;;1.08;;
15673;SDS011;7937;48.090;16.212;2022-07-17T10:48:48;1.88;;;1.00;;
15673;SDS011;7937;48.090;16.212;2022-07-17T10:51:51;3.92;;;1.00;;
15673;SDS011;7937;48.090;16.212;2022-07-17T10:54:53;3.08;;;1.02;;
15673;SDS011;7937;48.090;16.212;2022-07-17T10:57:55;1.10;;;1.00;;
15673;SDS011;7937;48.090;16.212;2022-07-17T11:01:03;2.20;;;1.00;;
15673;SDS011;7937;48.090;16.212;2022-07-17T11:04:08;1.25;;;0.80;;
15673;SDS011;7937;48.090;16.212;2022-07-17T11:07:10;2.72;;;1.20;;
15673;SDS011;7937;48.090;16.212;2022-07-17T11:10:13;2.65;;;1.13;;
15673;SDS011;7937;48.090;16.212;2022-07-17T11:13:15;1.70;;;1.00;;
15673;SDS011;7937;48.090;16.212;2022-07-17T11:16:25;2.45;;;1.00;;
15673;SDS011;7937;48.090;16.212;2022-07-17T11:19:38;1.08;;;0.98;;
15673;SDS011;7937;48.090;16.212;2022-07-17T11:22:41;1.33;;;1.20;;
15673;SDS011;7937;48.090;16.212;2022-07-17T11:26:02;3.38;;;1.23;;
15673;SDS011;7937;48.090;16.212;2022-07-17T11:29:06;3.03;;;1.20;;
15673;SDS011;7937;48.090;16.212;2022-07-17T11:32:08;1.90;;;1.10;;
15673;SDS011;7937;48.090;16.212;2022-07-17T11:35:17;2.58;;;1.02;;
15673;SDS011;7937;48.090;16.212;2022-07-17T11:38:41;2.70;;;1.20;;
15673;SDS011;7937;48.090;16.212;2022-07-17T11:41:44;1.23;;;0.93;;
15673;SDS011;7937;48.090;16.212;2022-07-17T11:44:49;2.35;;;1.08;;
15673;SDS011;7937;48.090;16.212;2022-07-17T11:47:52;1.10;;;1.00;;
15673;SDS011;7937;48.090;16.212;2022-07-17T11:50:55;1.27;;;1.13;;
15673;SDS011;7937;48.090;16.212;2022-07-17T11:54:02;2.95;;;1.13;;
15673;SDS011;7937;48.090;16.212;2022-07-17T11:57:05;1.83;;;1.02;;
15673;SDS011;7937;48.090;16.212;2022-07-17T12:00:09;2.42;;;1.20;;
15673;SDS011;7937;48.090;16.212;2022-07-17T12:03:12;1.45;;;1.00;;
15673;SDS011;7937;48.090;16.212;2022-07-17T12:06:15;2.20;;;1.10;;
15673;SDS011;7937;48.090;16.212;2022-07-17T12:09:28;1.92;;;1.05;;
15673;SDS011;7937;48.090;16.212;2022-07-17T12:12:36;1.58;;;1.10;;
15673;SDS011;7937;48.090;16.212;2022-07-17T12:15:40;2.47;;;1.00;;
15673;SDS011;7937;48.090;16.212;2022-07-17T12:18:43;3.60;;;1.10;;
15673;SDS011;7937;48.090;16.212;2022-07-17T12:25:05;1.92;;;0.90;;
15673;SDS011;7937;48.090;16.212;2022-07-17T12:28:07;1.83;;;0.85;;
15673;SDS011;7937;48.090;16.212;2022-07-17T12:31:12;1.02;;;0.90;;
15673;SDS011;7937;48.090;16.212;2022-07-17T12:34:18;2.13;;;1.15;;
15673;SDS011;7937;48.090;16.212;2022-07-17T12:37:20;0.95;;;0.82;;
15673;SDS011;7937;48.090;16.212;2022-07-17T12:40:23;1.92;;;0.80;;
15673;SDS011;7937;48.090;16.212;2022-07-17T12:43:25;1.48;;;0.88;;
15673;SDS011;7937;48.090;16.212;2022-07-17T12:46:28;5.80;;;1.02;;
15673;SDS011;7937;48.090;16.212;2022-07-17T12:49:30;1.40;;;0.75;;
15673;SDS011;7937;48.090;16.212;2022-07-17T12:52:33;1.05;;;0.75;;
15673;SDS011;7937;48.090;16.212;2022-07-17T12:55:35;2.97;;;0.80;;
15673;SDS011;7937;48.090;16.212;2022-07-17T12:58:39;0.90;;;0.90;;
15673;SDS011;7937;48.090;16.212;2022-07-17T13:01:41;4.15;;;1.20;;
15673;SDS011;7937;48.090;16.212;2022-07-17T13:04:43;2.75;;;1.20;;
15673;SDS011;7937;48.090;16.212;2022-07-17T13:07:45;3.75;;;0.88;;
15673;SDS011;7937;48.090;16.212;2022-07-17T13:10:47;2.05;;;0.93;;
15673;SDS011;7937;48.090;16.212;2022-07-17T13:13:49;2.58;;;1.13;;
15673;SDS011;7937;48.090;16.212;2022-07-17T13:16:52;2.78;;;1.08;;
15673;SDS011;7937;48.090;16.212;2022-07-17T13:19:54;1.52;;;1.10;;
15673;SDS011;7937;48.090;16.212;2022-07-17T13:22:56;3.85;;;1.02;;
15673;SDS011;7937;48.090;16.212;2022-07-17T13:25:58;2.50;;;0.90;;
15673;SDS011;7937;48.090;16.212;2022-07-17T13:29:00;1.20;;;1.00;;
15673;SDS011;7937;48.090;16.212;2022-07-17T13:32:03;1.90;;;1.13;;
15673;SDS011;7937;48.090;16.212;2022-07-17T13:35:06;1.25;;;0.80;;
15673;SDS011;7937;48.090;16.212;2022-07-17T13:38:09;1.50;;;0.75;;
15673;SDS011;7937;48.090;16.212;2022-07-17T13:41:11;4.30;;;1.40;;
15673;SDS011;7937;48.090;16.212;2022-07-17T13:44:13;1.38;;;0.90;;
15673;SDS011;7937;48.090;16.212;2022-07-17T13:47:15;3.33;;;0.88;;
15673;SDS011;7937;48.090;16.212;2022-07-17T13:50:17;1.38;;;0.93;;
15673;SDS011;7937;48.090;16.212;2022-07-17T13:53:19;1.60;;;1.17;;
15673;SDS011;7937;48.090;16.212;2022-07-17T13:56:22;1.05;;;0.82;;
15673;SDS011;7937;48.090;16.212;2022-07-17T13:59:24;1.10;;;0.73;;
15673;SDS011;7937;48.090;16.212;2022-07-17T14:02:27;1.92;;;1.13;;
15673;SDS011;7937;48.090;16.212;2022-07-17T14:05:31;1.92;;;1.10;;
15673;SDS011;7937;48.090;16.212;2022-07-17T14:08:33;1.30;;;1.10;;
15673;SDS011;7937;48.090;16.212;2022-07-17T14:11:36;1.13;;;1.00;;
15673;SDS011;7937;48.090;16.212;2022-07-17T14:14:38;1.52;;;1.05;;
15673;SDS011;7937;48.090;16.212;2022-07-17T14:17:40;1.02;;;0.70;;
15673;SDS011;7937;48.090;16.212;2022-07-17T14:20:43;1.48;;;1.00;;
15673;SDS011;7937;48.090;16.212;2022-07-17T14:23:45;2.05;;;1.15;;
15673;SDS011;7937;48.090;16.212;2022-07-17T14:26:47;0.90;;;0.80;;
15673;SDS011;7937;48.090;16.212;2022-07-17T14:29:50;6.50;;;1.35;;
15673;SDS011;7937;48.090;16.212;2022-07-17T14:32:52;3.30;;;0.98;;
15673;SDS011;7937;48.090;16.212;2022-07-17T14:35:54;5.05;;;1.27;;
15673;SDS011;7937;48.090;16.212;2022-07-17T14:38:56;1.90;;;0.80;;
15673;SDS011;7937;48.090;16.212;2022-07-17T14:41:59;0.95;;;0.77;;
15673;SDS011;7937;48.090;16.212;2022-07-17T14:45:01;2.10;;;1.00;;
15673;SDS011;7937;48.090;16.212;2022-07-17T14:48:04;2.13;;;1.00;;
15673;SDS011;7937;48.090;16.212;2022-07-17T14:51:06;1.45;;;1.00;;
15673;SDS011;7937;48.090;16.212;2022-07-17T14:54:08;0.75;;;0.73;;
15673;SDS011;7937;48.090;16.212;2022-07-17T14:57:10;2.50;;;0.80;;
15673;SDS011;7937;48.090;16.212;2022-07-17T15:00:12;1.65;;;1.05;;
15673;SDS011;7937;48.090;16.212;2022-07-17T15:03:16;4.50;;;1.25;;
15673;SDS011;7937;48.090;16.212;2022-07-17T15:06:18;1.63;;;0.80;;
15673;SDS011;7937;48.090;16.212;2022-07-17T15:09:21;2.45;;;0.90;;
15673;SDS011;7937;48.090;16.212;2022-07-17T15:12:23;0.60;;;0.60;;
15673;SDS011;7937;48.090;16.212;2022-07-17T15:15:25;1.42;;;0.82;;
15673;SDS011;7937;48.090;16.212;2022-07-17T15:18:27;2.50;;;0.90;;
15673;SDS011;7937;48.090;16.212;2022-07-17T15:21:29;2.47;;;1.13;;
15673;SDS011;7937;48.090;16.212;2022-07-17T15:24:51;7.13;;;1.50;;
15673;SDS011;7937;48.090;16.212;2022-07-17T15:27:53;3.58;;;0.80;;
15673;SDS011;7937;48.090;16.212;2022-07-17T15:30:55;0.90;;;0.70;;
15673;SDS011;7937;48.090;16.212;2022-07-17T15:33:57;1.67;;;0.90;;
15673;SDS011;7937;48.090;16.212;2022-07-17T15:37:00;2.05;;;0.70;;
15673;SDS011;7937;48.090;16.212;2022-07-17T15:40:02;1.13;;;0.80;;
15673;SDS011;7937;48.090;16.212;2022-07-17T15:43:05;1.00;;;0.90;;
15673;SDS011;7937;48.090;16.212;2022-07-17T15:46:07;3.58;;;0.80;;
15673;SDS011;7937;48.090;16.212;2022-07-17T15:49:09;1.08;;;0.75;;
15673;SDS011;7937;48.090;16.212;2022-07-17T15:52:11;1.60;;;1.00;;
15673;SDS011;7937;48.090;16.212;2022-07-17T15:55:13;2.45;;;0.82;;
15673;SDS011;7937;48.090;16.212;2022-07-17T15:58:16;1.63;;;0.75;;
15673;SDS011;7937;48.090;16.212;2022-07-17T16:01:18;2.13;;;0.90;;
15673;SDS011;7937;48.090;16.212;2022-07-17T16:04:20;2.10;;;0.80;;
15673;SDS011;7937;48.090;16.212;2022-07-17T16:07:22;2.33;;;1.00;;
15673;SDS011;7937;48.090;16.212;2022-07-17T16:10:24;1.73;;;0.95;;
15673;SDS011;7937;48.090;16.212;2022-07-17T16:13:26;1.35;;;0.90;;
15673;SDS011;7937;48.090;16.212;2022-07-17T16:16:28;1.58;;;0.95;;
15673;SDS011;7937;48.090;16.212;2022-07-17T16:19:31;1.65;;;0.90;;
15673;SDS011;7937;48.090;16.212;2022-07-17T16:22:33;1.17;;;0.82;;
15673;SDS011;7937;48.090;16.212;2022-07-17T16:25:35;2.17;;;0.90;;
15673;SDS011;7937;48.090;16.212;2022-07-17T16:28:37;1.13;;;0.80;;
15673;SDS011;7937;48.090;16.212;2022-07-17T16:31:39;3.35;;;0.80;;
15673;SDS011;7937;48.090;16.212;2022-07-17T16:34:43;1.20;;;0.93;;
15673;SDS011;7937;48.090;16.212;2022-07-17T16:37:45;0.60;;;0.60;;
15673;SDS011;7937;48.090;16.212;2022-07-17T16:40:47;0.98;;;0.88;;
15673;SDS011;7937;48.090;16.212;2022-07-17T16:43:49;0.95;;;0.63;;
15673;SDS011;7937;48.090;16.212;2022-07-17T16:46:51;2.67;;;0.90;;
15673;SDS011;7937;48.090;16.212;2022-07-17T16:49:53;0.77;;;0.60;;
15673;SDS011;7937;48.090;16.212;2022-07-17T16:52:55;2.38;;;1.05;;
15673;SDS011;7937;48.090;16.212;2022-07-17T16:55:57;0.80;;;0.80;;
15673;SDS011;7937;48.090;16.212;2022-07-17T16:59:00;1.17;;;0.70;;
15673;SDS011;7937;48.090;16.212;2022-07-17T17:02:12;1.05;;;0.80;;
15673;SDS011;7937;48.090;16.212;2022-07-17T17:05:15;0.63;;;0.60;;
15673;SDS011;7937;48.090;16.212;2022-07-17T17:08:17;0.82;;;0.82;;
15673;SDS011;7937;48.090;16.212;2022-07-17T17:11:19;1.65;;;0.60;;
15673;SDS011;7937;48.090;16.212;2022-07-17T17:14:21;2.67;;;1.02;;
15673;SDS011;7937;48.090;16.212;2022-07-17T17:17:23;1.30;;;1.15;;
15673;SDS011;7937;48.090;16.212;2022-07-17T17:20:25;3.22;;;1.13;;
15673;SDS011;7937;48.090;16.212;2022-07-17T17:23:27;3.83;;;1.10;;
15673;SDS011;7937;48.090;16.212;2022-07-17T17:26:29;2.03;;;1.20;;
15673;SDS011;7937;48.090;16.212;2022-07-17T17:29:32;2.53;;;1.27;;
15673;SDS011;7937;48.090;16.212;2022-07-17T17:32:36;3.90;;;1.80;;
15673;SDS011;7937;48.090;16.212;2022-07-17T17:35:38;4.32;;;2.30;;
15673;SDS011;7937;48.090;16.212;2022-07-17T17:38:40;10.77;;;7.97;;
15673;SDS011;7937;48.090;16.212;2022-07-17T17:41:42;8.00;;;5.65;;
15673;SDS011;7937;48.090;16.212;2022-07-17T17:44:44;7.05;;;5.25;;
15673;SDS011;7937;48.090;16.212;2022-07-17T17:47:46;4.93;;;2.97;;
15673;SDS011;7937;48.090;16.212;2022-07-17T17:50:48;3.78;;;2.30;;
15673;SDS011;7937;48.090;16.212;2022-07-17T17:53:50;3.28;;;2.10;;
15673;SDS011;7937;48.090;16.212;2022-07-17T17:56:52;3.45;;;1.90;;
15673;SDS011;7937;48.090;16.212;2022-07-17T17:59:54;3.10;;;1.60;;
15673;SDS011;7937;48.090;16.212;2022-07-17T18:02:56;2.20;;;1.50;;
15673;SDS011;7937;48.090;16.212;2022-07-17T18:05:58;4.20;;;2.08;;
15673;SDS011;7937;48.090;16.212;2022-07-17T18:09:04;2.00;;;1.45;;
15673;SDS011;7937;48.090;16.212;2022-07-17T18:12:08;3.27;;;2.00;;
15673;SDS011;7937;48.090;16.212;2022-07-17T18:15:10;6.20;;;3.07;;
15673;SDS011;7937;48.090;16.212;2022-07-17T18:18:12;3.37;;;1.67;;
15673;SDS011;7937;48.090;16.212;2022-07-17T18:21:14;3.47;;;1.60;;
15673;SDS011;7937;48.090;16.212;2022-07-17T18:24:17;5.57;;;3.07;;
15673;SDS011;7937;48.090;16.212;2022-07-17T18:27:19;4.80;;;2.13;;
15673;SDS011;7937;48.090;16.212;2022-07-17T18:30:22;3.20;;;2.00;;
15673;SDS011;7937;48.090;16.212;2022-07-17T18:33:25;4.27;;;2.40;;